createdAt,value
2019-01-30T00:00:29.137Z,72.69
2019-01-30T00:02:34.089Z,72.87
2019-01-30T00:06:29.107Z,72.81
2019-01-30T00:08:30.948Z,72.67
2019-01-30T00:12:29.086Z,72.47
2019-01-30T00:14:34.038Z,72.99
2019-01-30T00:18:34.100Z,72.72
2019-01-30T00:20:33.587Z,72.47
2019-01-30T00:24:34.105Z,72.75
2019-01-30T00:26:33.834Z,72.16
2019-01-30T00:30:29.981Z,72.41
2019-01-30T00:32:29.131Z,72.24
2019-01-30T00:36:34.064Z,72.47
2019-01-30T00:38:29.106Z,72.54
2019-01-30T00:42:29.126Z,72.48
2019-01-30T00:44:33.864Z,72.49
2019-01-30T00:48:29.139Z,72.13
2019-01-30T00:50:29.125Z,72.54
2019-01-30T00:54:32.140Z,72.41
2019-01-30T00:56:38.751Z,72.59
2019-01-30T01:00:29.151Z,72.33
2019-01-30T01:02:31.312Z,72.40
2019-01-30T01:06:29.173Z,72.57
2019-01-30T01:08:33.598Z,72.50
2019-01-30T01:12:29.145Z,72.41
2019-01-30T01:14:29.153Z,72.36
2019-01-30T01:18:29.143Z,72.17
2019-01-30T01:20:31.405Z,72.14
2019-01-30T01:24:29.163Z,72.41
2019-01-30T01:26:35.187Z,72.54
2019-01-30T01:30:29.440Z,72.19
2019-01-30T01:32:32.830Z,72.63
2019-01-30T01:36:31.424Z,72.45
2019-01-30T01:38:29.158Z,72.57
2019-01-30T01:42:29.152Z,72.41
2019-01-30T01:44:29.128Z,72.43
2019-01-30T01:48:29.188Z,72.61
2019-01-30T01:50:29.167Z,72.55
2019-01-30T01:54:29.110Z,72.37
2019-01-30T01:56:29.125Z,72.31
2019-01-30T02:00:35.298Z,72.59
2019-01-30T02:02:29.177Z,72.45
2019-01-30T02:06:29.189Z,72.36
2019-01-30T02:08:29.140Z,72.40
2019-01-30T02:12:29.135Z,72.62
2019-01-30T02:14:29.155Z,72.21
2019-01-30T02:18:29.152Z,72.60
2019-01-30T02:20:29.166Z,72.29
2019-01-30T02:24:29.142Z,72.37
2019-01-30T02:26:29.210Z,72.42
2019-01-30T02:30:29.173Z,72.41
2019-01-30T02:32:29.191Z,72.43
2019-01-30T02:36:29.133Z,72.30
2019-01-30T02:38:29.130Z,72.52
2019-01-30T02:42:29.129Z,72.50
2019-01-30T02:44:29.190Z,72.55
2019-01-30T02:48:33.789Z,72.56
2019-01-30T02:50:29.180Z,72.46
2019-01-30T02:54:29.199Z,72.51
2019-01-30T02:56:29.170Z,72.30
2019-01-30T03:00:29.150Z,72.54
2019-01-30T03:02:29.167Z,72.58
2019-01-30T03:06:29.184Z,72.19
2019-01-30T03:08:29.162Z,72.23
2019-01-30T03:12:29.153Z,72.33
2019-01-30T03:14:29.186Z,72.15
2019-01-30T03:18:32.839Z,72.12
2019-01-30T03:20:32.980Z,72.20
2019-01-30T03:24:29.166Z,72.14
2019-01-30T03:26:29.208Z,72.12
2019-01-30T03:30:29.297Z,72.51
2019-01-30T03:32:29.196Z,72.41
2019-01-30T03:36:30.008Z,72.38
2019-01-30T03:38:32.868Z,72.23
2019-01-30T03:42:29.186Z,72.16
2019-01-30T03:44:29.199Z,72.41
2019-01-30T03:48:33.668Z,72.47
2019-01-30T03:50:31.446Z,72.58
2019-01-30T03:56:34.186Z,72.27
2019-01-30T03:58:29.172Z,72.37
2019-01-30T04:02:34.169Z,72.44
2019-01-30T04:04:29.176Z,72.28
2019-01-30T04:08:32.838Z,72.19
2019-01-30T04:10:29.182Z,72.12
2019-01-30T04:14:29.192Z,72.22
2019-01-30T04:16:29.219Z,72.16
2019-01-30T04:20:34.395Z,72.28
2019-01-30T04:22:29.182Z,72.12
2019-01-30T04:26:29.210Z,72.36
2019-01-30T04:28:32.955Z,72.46
2019-01-30T04:32:29.215Z,72.42
2019-01-30T04:34:37.036Z,72.21
2019-01-30T04:38:29.184Z,72.22
2019-01-30T04:40:29.181Z,72.24
2019-01-30T04:44:31.450Z,72.46
2019-01-30T04:46:31.456Z,72.16
2019-01-30T04:50:29.204Z,72.19
2019-01-30T04:52:33.096Z,72.15
2019-01-30T04:56:31.419Z,72.24
2019-01-30T04:58:29.227Z,72.24
2019-01-30T05:02:33.701Z,72.21
2019-01-30T05:06:29.255Z,72.27
2019-01-30T05:08:35.002Z,72.37
2019-01-30T05:12:34.126Z,72.41
2019-01-30T05:14:33.778Z,72.24
2019-01-30T05:18:29.243Z,72.27
2019-01-30T05:20:29.218Z,72.05
2019-01-30T05:24:29.209Z,72.35
2019-01-30T05:26:33.634Z,72.33
2019-01-30T05:30:29.371Z,72.19
2019-01-30T05:32:34.178Z,72.16
2019-01-30T05:36:29.213Z,72.23
2019-01-30T05:38:30.340Z,72.30
2019-01-30T05:42:33.642Z,72.27
2019-01-30T05:44:30.249Z,72.35
2019-01-30T05:48:29.347Z,72.06
2019-01-30T05:50:33.789Z,72.38
2019-01-30T05:54:33.816Z,72.21
2019-01-30T05:56:34.250Z,72.57
2019-01-30T06:00:34.339Z,72.33
2019-01-30T06:02:32.821Z,72.42
2019-01-30T06:06:29.250Z,72.38
2019-01-30T06:08:31.134Z,72.51
2019-01-30T06:12:33.636Z,72.45
2019-01-30T06:14:34.219Z,72.12
2019-01-30T06:18:33.559Z,72.11
2019-01-30T06:20:31.127Z,72.26
2019-01-30T06:24:29.249Z,72.09
2019-01-30T06:26:29.230Z,72.37
2019-01-30T06:30:29.247Z,72.25
2019-01-30T06:32:29.236Z,72.10
2019-01-30T06:36:29.244Z,72.11
2019-01-30T06:38:29.242Z,71.97
2019-01-30T06:42:29.218Z,72.18
2019-01-30T06:44:29.233Z,72.37
2019-01-30T06:48:29.266Z,72.04
2019-01-30T06:50:29.248Z,72.11
2019-01-30T06:54:29.233Z,72.19
2019-01-30T06:56:29.268Z,72.16
2019-01-30T07:00:33.707Z,72.33
2019-01-30T07:02:32.867Z,72.33
2019-01-30T07:06:34.388Z,72.09
2019-01-30T07:08:29.238Z,72.22
2019-01-30T07:12:29.248Z,72.20
2019-01-30T07:14:29.272Z,72.15
2019-01-30T07:18:29.267Z,72.31
2019-01-30T07:20:31.217Z,72.31
2019-01-30T07:24:29.264Z,72.23
2019-01-30T07:26:29.216Z,72.36
2019-01-30T07:30:33.197Z,72.36
2019-01-30T07:32:29.246Z,72.46
2019-01-30T07:36:29.251Z,72.20
2019-01-30T07:38:38.485Z,72.19
2019-01-30T07:42:29.280Z,72.45
2019-01-30T07:44:33.798Z,72.26
2019-01-30T07:48:29.290Z,72.31
2019-01-30T07:50:29.249Z,72.43
2019-01-30T07:56:29.269Z,72.42
2019-01-30T07:58:29.233Z,72.36
2019-01-30T08:02:29.267Z,72.38
2019-01-30T08:04:33.990Z,72.35
2019-01-30T08:08:30.098Z,72.39
2019-01-30T08:10:34.236Z,72.21
2019-01-30T08:14:29.247Z,72.29
2019-01-30T08:16:29.309Z,72.34
2019-01-30T08:20:31.472Z,72.38
2019-01-30T08:22:29.268Z,72.42
2019-01-30T08:26:34.276Z,72.17
2019-01-30T08:28:29.303Z,72.40
2019-01-30T08:32:29.403Z,72.26
2019-01-30T08:34:29.607Z,72.48
2019-01-30T08:38:29.294Z,72.39
2019-01-30T08:40:31.395Z,72.27
2019-01-30T08:44:29.254Z,72.53
2019-01-30T08:46:29.321Z,72.45
2019-01-30T08:50:29.283Z,72.34
2019-01-30T08:52:29.415Z,72.16
2019-01-30T08:56:29.278Z,72.28
2019-01-30T08:58:33.528Z,72.29
2019-01-30T09:04:29.316Z,72.59
2019-01-30T09:06:29.306Z,72.30
2019-01-30T09:10:29.423Z,72.41
2019-01-30T09:12:29.271Z,72.46
2019-01-30T09:16:29.275Z,72.47
2019-01-30T09:18:29.312Z,72.60
2019-01-30T09:22:29.303Z,72.31
2019-01-30T09:24:31.597Z,72.48
2019-01-30T09:28:29.272Z,72.52
2019-01-30T09:30:31.293Z,72.47
2019-01-30T09:34:29.330Z,72.46
2019-01-30T09:36:29.350Z,72.52
2019-01-30T09:40:29.331Z,72.57
2019-01-30T09:42:29.266Z,72.42
2019-01-30T09:46:29.332Z,72.40
2019-01-30T09:48:29.321Z,72.27
2019-01-30T09:52:29.303Z,72.54
2019-01-30T09:54:29.402Z,72.69
2019-01-30T09:58:34.326Z,72.58
2019-01-30T10:00:29.287Z,72.49
2019-01-30T10:04:29.282Z,72.51
2019-01-30T10:06:29.446Z,72.57
2019-01-30T10:10:29.286Z,72.47
2019-01-30T10:12:29.314Z,72.49
2019-01-30T10:16:29.293Z,72.51
2019-01-30T10:18:29.285Z,72.50
2019-01-30T10:22:29.280Z,72.52
2019-01-30T10:24:29.319Z,72.29
2019-01-30T10:28:29.383Z,72.37
2019-01-30T10:30:29.304Z,72.51
2019-01-30T10:34:34.321Z,72.46
2019-01-30T10:36:34.362Z,72.48
2019-01-30T10:40:29.292Z,72.47
2019-01-30T10:44:29.291Z,72.52
2019-01-30T10:46:29.291Z,72.29
2019-01-30T10:50:29.292Z,72.40
2019-01-30T10:52:31.564Z,72.38
2019-01-30T10:56:30.181Z,72.29
2019-01-30T10:58:33.841Z,72.59
2019-01-30T11:02:29.330Z,72.55
2019-01-30T11:04:29.321Z,72.28
2019-01-30T11:08:29.292Z,72.58
2019-01-30T11:10:34.342Z,72.49
2019-01-30T11:14:29.304Z,72.45
2019-01-30T11:16:29.323Z,72.37
2019-01-30T11:20:29.307Z,72.47
2019-01-30T11:22:29.308Z,72.54
2019-01-30T11:26:29.294Z,72.47
2019-01-30T11:28:29.284Z,72.22
2019-01-30T11:32:29.299Z,72.55
2019-01-30T11:34:29.337Z,72.46
2019-01-30T11:38:30.216Z,72.51
2019-01-30T11:40:38.506Z,72.35
2019-01-30T11:44:29.339Z,72.29
2019-01-30T11:46:29.318Z,72.57
2019-01-30T11:50:29.333Z,72.46
2019-01-30T11:52:29.318Z,72.45
2019-01-30T11:56:29.339Z,72.36
2019-01-30T11:58:29.345Z,72.46
2019-01-30T12:02:34.433Z,72.56
2019-01-30T12:04:29.341Z,72.39
2019-01-30T12:08:29.341Z,72.32
2019-01-30T12:10:34.288Z,72.58
2019-01-30T12:14:29.332Z,72.48
2019-01-30T12:16:29.296Z,72.43
2019-01-30T12:20:29.316Z,72.42
2019-01-30T12:22:29.317Z,72.41
2019-01-30T12:26:34.292Z,72.51
2019-01-30T12:28:29.315Z,72.26
2019-01-30T12:32:29.330Z,72.25
2019-01-30T12:34:29.364Z,72.21
2019-01-30T12:38:29.343Z,72.37
2019-01-30T12:40:29.331Z,72.62
2019-01-30T12:44:33.889Z,72.51
2019-01-30T12:46:29.354Z,72.52
2019-01-30T12:50:29.326Z,72.46
2019-01-30T12:52:29.368Z,72.76
2019-01-30T12:56:29.339Z,72.65
2019-01-30T12:58:29.384Z,73.01
2019-01-30T13:02:29.382Z,72.60
2019-01-30T13:04:38.568Z,72.85
2019-01-30T13:08:34.526Z,72.57
2019-01-30T13:10:29.344Z,73.07
2019-01-30T13:14:29.365Z,73.10
2019-01-30T13:16:29.360Z,72.74
2019-01-30T13:20:29.335Z,72.93
2019-01-30T13:22:29.372Z,72.74
2019-01-30T13:26:38.746Z,72.78
2019-01-30T13:28:34.373Z,72.83
2019-01-30T13:32:29.378Z,73.21
2019-01-30T13:34:29.360Z,73.03
2019-01-30T13:38:29.381Z,73.23
2019-01-30T13:40:29.346Z,72.99
2019-01-30T13:44:29.352Z,73.07
2019-01-30T13:46:38.656Z,72.73
2019-01-30T13:50:29.381Z,72.67
2019-01-30T13:52:29.355Z,73.22
2019-01-30T13:56:29.342Z,73.25
2019-01-30T13:58:29.355Z,73.41
2019-01-30T14:02:29.344Z,73.15
2019-01-30T14:04:29.338Z,72.66
2019-01-30T14:10:29.480Z,72.91
2019-01-30T14:12:38.748Z,72.88
2019-01-30T14:16:29.402Z,72.72
2019-01-30T14:18:33.789Z,73.53
2019-01-30T14:22:29.453Z,73.33
2019-01-30T14:24:34.431Z,73.58
2019-01-30T14:28:29.364Z,73.40
2019-01-30T14:30:29.479Z,73.42
2019-01-30T14:34:34.370Z,72.83
2019-01-30T14:36:39.055Z,73.68
2019-01-30T14:40:29.435Z,73.46
2019-01-30T14:42:29.391Z,73.55
2019-01-30T14:46:34.261Z,73.66
2019-01-30T14:48:34.371Z,73.50
2019-01-30T14:52:29.475Z,73.79
2019-01-30T14:54:29.440Z,73.41
2019-01-30T14:58:29.498Z,73.63
2019-01-30T15:00:29.399Z,73.77
2019-01-30T15:04:34.537Z,73.45
2019-01-30T15:06:34.420Z,73.78
2019-01-30T15:10:34.416Z,74.37
2019-01-30T15:12:29.493Z,73.83
2019-01-30T15:16:29.495Z,73.59
2019-01-30T15:18:29.565Z,73.73
2019-01-30T15:22:31.411Z,74.11
2019-01-30T15:24:29.411Z,74.01
2019-01-30T15:28:29.361Z,73.78
2019-01-30T15:30:29.580Z,74.23
2019-01-30T15:34:33.915Z,73.93
2019-01-30T15:36:29.410Z,73.74
2019-01-30T15:40:35.308Z,73.61
2019-01-30T15:42:29.362Z,73.64
2019-01-30T15:46:34.516Z,73.60
2019-01-30T15:48:37.968Z,73.56
2019-01-30T15:52:32.119Z,73.55
2019-01-30T15:54:29.388Z,73.61
2019-01-30T15:58:35.600Z,73.51
2019-01-30T16:00:34.570Z,73.63
2019-01-30T16:04:29.362Z,73.58
2019-01-30T16:06:30.760Z,73.71
2019-01-30T16:10:32.906Z,73.74
2019-01-30T16:12:33.860Z,73.74
2019-01-30T16:16:32.090Z,73.79
2019-01-30T16:18:34.517Z,73.92
2019-01-30T16:22:29.566Z,73.87
2019-01-30T16:24:34.546Z,73.74
2019-01-30T16:28:29.371Z,74.00
2019-01-30T16:30:29.410Z,73.61
2019-01-30T16:34:30.562Z,74.05
2019-01-30T16:36:29.613Z,73.92
2019-01-30T16:40:32.092Z,73.80
2019-01-30T16:42:31.909Z,73.83
2019-01-30T16:46:29.559Z,73.58
2019-01-30T16:48:35.604Z,74.05
2019-01-30T16:52:35.586Z,74.13
2019-01-30T16:54:29.418Z,73.81
2019-01-30T16:58:32.121Z,73.95
2019-01-30T17:00:29.556Z,74.00
2019-01-30T17:04:29.649Z,73.77
2019-01-30T17:06:34.584Z,73.90
2019-01-30T17:10:29.675Z,73.72
2019-01-30T17:12:29.617Z,73.91
2019-01-30T17:18:29.651Z,74.02
2019-01-30T17:20:34.595Z,73.93
2019-01-30T17:24:29.682Z,74.05
2019-01-30T17:26:31.581Z,73.53
2019-01-30T17:30:29.440Z,73.91
2019-01-30T17:32:35.392Z,73.93
2019-01-30T17:36:29.626Z,73.98
2019-01-30T17:38:29.417Z,74.08
2019-01-30T17:42:29.444Z,73.75
2019-01-30T17:44:29.631Z,73.80
2019-01-30T17:48:29.422Z,73.59
2019-01-30T17:50:29.614Z,74.05
2019-01-30T17:54:29.415Z,73.40
2019-01-30T17:56:29.626Z,73.55
2019-01-30T18:00:34.565Z,74.23
2019-01-30T18:02:34.488Z,73.84
2019-01-30T18:08:34.505Z,73.64
2019-01-30T18:10:29.444Z,73.86
2019-01-30T18:14:29.420Z,73.44
2019-01-30T18:16:29.442Z,74.00
2019-01-30T18:20:33.847Z,73.76
2019-01-30T18:22:30.379Z,73.97
2019-01-30T18:26:34.444Z,73.89
2019-01-30T18:28:34.365Z,73.62
2019-01-30T18:32:29.462Z,73.63
2019-01-30T18:34:29.563Z,73.84
2019-01-30T18:38:35.867Z,73.81
2019-01-30T18:40:29.455Z,73.30
2019-01-30T18:44:34.659Z,73.60
2019-01-30T18:46:31.990Z,73.47
2019-01-30T18:55:51.668Z,73.87
2019-01-30T18:57:46.690Z,73.73
2019-01-30T19:01:48.514Z,73.38
2019-01-30T19:03:50.524Z,73.69
2019-01-30T19:09:46.653Z,74.02
2019-01-30T19:11:51.857Z,73.87
2019-01-30T19:15:46.678Z,73.74
2019-01-30T19:17:51.506Z,73.82
2019-01-30T19:21:47.634Z,73.46
2019-01-30T19:23:46.674Z,73.70
2019-01-30T19:27:46.672Z,73.43
2019-01-30T19:29:51.865Z,73.55
2019-01-30T19:33:46.689Z,73.14
2019-01-30T19:35:46.707Z,73.39
2019-01-30T19:39:47.534Z,73.74
2019-01-30T19:41:51.717Z,73.76
2019-01-30T19:45:46.708Z,73.72
2019-01-30T19:47:46.680Z,73.42
2019-01-30T19:51:46.692Z,73.70
2019-01-30T19:53:51.870Z,73.45
2019-01-30T19:57:46.660Z,73.29
2019-01-30T19:59:57.874Z,73.38
2019-01-30T20:03:46.708Z,73.40
2019-01-30T20:05:46.728Z,73.60
2019-01-30T20:09:46.714Z,73.63
2019-01-30T20:11:51.437Z,73.55
2019-01-30T20:15:46.729Z,73.50
2019-01-30T20:17:51.036Z,73.74
2019-01-30T20:21:51.218Z,73.31
2019-01-30T20:23:46.747Z,73.57
2019-01-30T20:27:46.734Z,73.16
2019-01-30T20:29:46.737Z,73.29
2019-01-30T20:33:46.732Z,73.26
2019-01-30T20:35:51.337Z,73.44
2019-01-30T20:39:51.755Z,73.15
2019-01-30T20:41:51.302Z,73.51
2019-01-30T20:45:46.730Z,73.15
2019-01-30T20:47:46.734Z,73.14
2019-01-30T20:51:50.606Z,73.36
2019-01-30T20:53:46.742Z,73.04
2019-01-30T20:57:48.607Z,73.19
2019-01-30T20:59:46.732Z,73.27
2019-01-30T21:03:46.747Z,73.36
2019-01-30T21:05:50.507Z,73.39
2019-01-30T21:09:46.867Z,73.36
2019-01-30T21:11:46.737Z,73.41
2019-01-30T21:15:46.776Z,73.26
2019-01-30T21:17:46.767Z,73.24
2019-01-30T21:21:46.759Z,73.19
2019-01-30T21:23:51.141Z,73.15
2019-01-30T21:27:50.651Z,73.34
2019-01-30T21:29:54.806Z,73.12
2019-01-30T21:33:46.798Z,73.25
2019-01-30T21:35:49.048Z,73.13
2019-01-30T21:39:46.769Z,73.11
2019-01-30T21:41:46.779Z,72.97
2019-01-30T21:45:55.702Z,73.35
2019-01-30T21:47:46.778Z,73.39
2019-01-30T21:51:46.782Z,72.93
2019-01-30T21:53:46.767Z,73.12
2019-01-30T21:57:46.779Z,73.29
2019-01-30T21:59:46.787Z,73.00
2019-01-30T22:03:51.766Z,73.38
2019-01-30T22:05:46.814Z,73.09
2019-01-30T22:09:46.803Z,73.17
2019-01-30T22:11:51.653Z,73.41
2019-01-30T22:15:46.812Z,73.03
2019-01-30T22:17:51.071Z,73.15
2019-01-30T22:21:46.782Z,73.38
2019-01-30T22:23:51.220Z,73.45
2019-01-30T22:27:46.813Z,73.27
2019-01-30T22:29:52.512Z,73.58
2019-01-30T22:33:46.804Z,73.28
2019-01-30T22:35:51.359Z,73.29
2019-01-30T22:39:46.805Z,73.29
2019-01-30T22:41:51.800Z,73.34
2019-01-30T22:45:46.842Z,73.17
2019-01-30T22:47:46.826Z,73.19
2019-01-30T22:51:46.836Z,73.44
2019-01-30T22:53:46.829Z,73.11
2019-01-30T22:57:46.828Z,73.36
2019-01-30T22:59:46.849Z,73.36
2019-01-30T23:03:46.829Z,73.50
2019-01-30T23:05:46.817Z,73.13
2019-01-30T23:09:52.025Z,73.60
2019-01-30T23:11:46.829Z,73.42
2019-01-30T23:15:46.849Z,73.40
2019-01-30T23:17:46.856Z,73.16
2019-01-30T23:21:46.855Z,73.57
2019-01-30T23:23:46.846Z,73.60
2019-01-30T23:27:46.871Z,73.34
2019-01-30T23:29:51.291Z,73.62
2019-01-30T23:33:51.836Z,73.35
2019-01-30T23:35:46.850Z,73.61
2019-01-30T23:39:46.866Z,73.36
2019-01-30T23:41:47.703Z,73.37
2019-01-30T23:45:55.866Z,73.37
2019-01-30T23:47:46.872Z,73.41
2019-01-30T23:51:46.901Z,73.49
2019-01-30T23:53:46.879Z,73.36
2019-01-30T23:57:46.882Z,73.36
2019-01-30T23:59:46.944Z,73.58
